createdAt,value
2023-01-31T00:01:15.864Z,0.80
2023-01-31T00:03:43.908Z,1.00
2023-01-31T00:06:21.239Z,0.80
2023-01-31T00:08:49.470Z,1.08
2023-01-31T00:11:17.705Z,1.08
2023-01-31T00:13:45.689Z,0.70
2023-01-31T00:16:14.418Z,0.63
2023-01-31T00:18:41.951Z,0.85
2023-01-31T00:21:10.946Z,0.65
2023-01-31T00:23:39.172Z,1.00
2023-01-31T00:26:14.485Z,0.90
2023-01-31T00:28:42.153Z,0.60
2023-01-31T00:31:10.563Z,0.90
2023-01-31T00:33:38.741Z,0.80
2023-01-31T00:36:07.063Z,0.80
2023-01-31T00:38:34.658Z,0.75
2023-01-31T00:41:01.973Z,0.60
2023-01-31T00:43:29.145Z,0.70
2023-01-31T00:45:56.387Z,0.60
2023-01-31T00:48:23.705Z,0.75
2023-01-31T00:50:50.999Z,1.40
2023-01-31T00:53:23.385Z,1.05
2023-01-31T00:55:51.381Z,0.80
2023-01-31T00:58:18.907Z,0.70
2023-01-31T01:00:46.847Z,0.80
2023-01-31T01:03:14.939Z,0.93
2023-01-31T01:05:42.510Z,0.60
2023-01-31T01:08:10.545Z,0.82
2023-01-31T01:10:45.932Z,0.75
2023-01-31T01:13:13.604Z,0.80
2023-01-31T01:15:40.958Z,0.68
2023-01-31T01:18:08.293Z,0.70
2023-01-31T01:20:36.576Z,0.82
2023-01-31T01:23:04.133Z,0.80
2023-01-31T01:25:31.758Z,0.80
2023-01-31T01:27:58.930Z,0.80
2023-01-31T01:30:26.319Z,0.60
2023-01-31T01:32:54.863Z,0.82
2023-01-31T01:35:22.421Z,0.80
2023-01-31T01:37:49.966Z,0.60
2023-01-31T01:40:17.554Z,1.50
2023-01-31T01:42:44.842Z,1.80
2023-01-31T01:45:15.976Z,0.77
2023-01-31T01:47:47.967Z,0.65
2023-01-31T01:50:33.657Z,0.68
2023-01-31T01:53:06.255Z,0.77
2023-01-31T01:55:45.450Z,0.80
2023-01-31T01:58:33.159Z,0.75
2023-01-31T02:01:00.802Z,0.70
2023-01-31T02:03:28.337Z,0.80
2023-01-31T02:05:57.714Z,0.60
2023-01-31T02:11:10.326Z,1.00
2023-01-31T02:13:38.494Z,0.75
2023-01-31T02:16:05.751Z,0.60
2023-01-31T02:18:33.098Z,1.00
2023-01-31T02:21:09.169Z,0.60
2023-01-31T02:23:54.443Z,0.60
2023-01-31T02:26:39.780Z,0.77
2023-01-31T02:29:22.011Z,0.60
2023-01-31T02:31:49.479Z,0.77
2023-01-31T02:34:23.955Z,0.77
2023-01-31T02:37:03.199Z,0.80
2023-01-31T02:39:41.795Z,0.60
2023-01-31T02:42:27.583Z,0.60
2023-01-31T02:45:00.547Z,0.80
2023-01-31T02:47:46.314Z,0.60
2023-01-31T02:50:19.750Z,0.90
2023-01-31T02:52:49.964Z,0.80
2023-01-31T02:55:41.230Z,0.70
2023-01-31T02:58:10.232Z,0.60
2023-01-31T03:00:40.044Z,0.55
2023-01-31T03:03:08.748Z,0.70
2023-01-31T03:05:36.457Z,0.70
2023-01-31T03:08:05.432Z,0.77
2023-01-31T03:10:32.753Z,0.60
2023-01-31T03:13:09.146Z,0.90
2023-01-31T03:15:54.848Z,0.60
2023-01-31T03:18:27.989Z,0.77
2023-01-31T03:20:55.285Z,0.93
2023-01-31T03:23:24.961Z,0.80
2023-01-31T03:25:52.608Z,0.75
2023-01-31T03:28:23.211Z,0.60
2023-01-31T03:30:54.233Z,0.80
2023-01-31T03:33:26.850Z,0.77
2023-01-31T03:36:12.663Z,0.65
2023-01-31T03:39:09.405Z,0.60
2023-01-31T03:41:55.237Z,0.70
2023-01-31T03:44:28.241Z,0.65
2023-01-31T03:46:59.236Z,0.75
2023-01-31T03:49:27.568Z,0.70
2023-01-31T03:51:59.364Z,0.60
2023-01-31T03:54:29.240Z,0.90
2023-01-31T03:57:02.400Z,0.60
2023-01-31T03:59:32.538Z,0.60
2023-01-31T04:02:01.243Z,0.70
2023-01-31T04:04:35.722Z,0.80
2023-01-31T04:07:03.460Z,0.70
2023-01-31T04:09:31.045Z,0.60
2023-01-31T04:12:00.847Z,0.80
2023-01-31T04:14:28.234Z,0.80
2023-01-31T04:16:55.342Z,0.60
2023-01-31T04:19:22.610Z,0.70
2023-01-31T04:21:50.059Z,0.75
2023-01-31T04:24:17.473Z,0.73
2023-01-31T04:26:44.989Z,1.23
2023-01-31T04:29:13.702Z,0.80
2023-01-31T04:31:41.510Z,0.85
2023-01-31T04:34:09.361Z,0.70
2023-01-31T04:36:36.968Z,0.77
2023-01-31T04:39:04.436Z,0.80
2023-01-31T04:41:32.036Z,1.00
2023-01-31T04:43:59.195Z,0.80
2023-01-31T04:46:26.668Z,0.60
2023-01-31T04:48:54.180Z,0.70
2023-01-31T04:51:21.726Z,0.77
2023-01-31T04:53:49.178Z,0.73
2023-01-31T04:56:16.534Z,0.80
2023-01-31T04:58:44.196Z,0.70
2023-01-31T05:01:11.796Z,0.60
2023-01-31T05:03:39.246Z,0.70
2023-01-31T05:06:06.927Z,0.80
2023-01-31T05:08:34.126Z,1.05
2023-01-31T05:11:04.120Z,0.98
2023-01-31T05:13:32.787Z,0.60
2023-01-31T05:16:00.245Z,0.68
2023-01-31T05:18:27.539Z,0.90
2023-01-31T05:20:54.668Z,0.90
2023-01-31T05:23:22.136Z,0.73
2023-01-31T05:25:49.948Z,0.85
2023-01-31T05:28:17.562Z,0.90
2023-01-31T05:30:45.096Z,1.17
2023-01-31T05:33:12.366Z,0.90
2023-01-31T05:35:42.109Z,0.98
2023-01-31T05:38:09.688Z,0.70
2023-01-31T05:40:36.962Z,0.80
2023-01-31T05:43:04.178Z,0.90
2023-01-31T05:45:31.554Z,0.88
2023-01-31T05:47:59.078Z,0.90
2023-01-31T05:50:26.571Z,1.20
2023-01-31T05:52:54.951Z,0.82
2023-01-31T05:55:22.695Z,0.90
2023-01-31T05:57:50.308Z,0.90
2023-01-31T06:00:17.915Z,1.00
2023-01-31T06:02:45.487Z,1.00
2023-01-31T06:05:12.802Z,0.82
2023-01-31T06:07:40.221Z,0.85
2023-01-31T06:10:08.354Z,0.80
2023-01-31T06:12:36.533Z,2.20
2023-01-31T06:15:04.482Z,0.80
2023-01-31T06:17:31.659Z,0.60
2023-01-31T06:19:59.213Z,0.88
2023-01-31T06:22:26.672Z,0.88
2023-01-31T06:24:53.763Z,0.85
2023-01-31T06:27:20.865Z,0.98
2023-01-31T06:29:48.004Z,0.75
2023-01-31T06:32:15.109Z,1.25
2023-01-31T06:34:42.567Z,1.13
2023-01-31T06:37:10.762Z,1.02
2023-01-31T06:39:38.180Z,0.70
2023-01-31T06:42:05.936Z,0.80
2023-01-31T06:44:33.640Z,1.05
2023-01-31T06:47:01.792Z,1.25
2023-01-31T06:49:29.300Z,0.80
2023-01-31T06:51:56.894Z,1.10
2023-01-31T06:54:24.057Z,1.40
2023-01-31T06:56:51.520Z,1.20
2023-01-31T06:59:19.169Z,1.00
2023-01-31T07:01:46.692Z,1.30
2023-01-31T07:04:14.499Z,0.80
2023-01-31T07:06:41.644Z,1.30
2023-01-31T07:09:09.025Z,1.25
2023-01-31T07:11:37.594Z,1.10
2023-01-31T07:14:05.323Z,1.40
2023-01-31T07:16:32.779Z,1.25
2023-01-31T07:19:00.178Z,1.30
2023-01-31T07:21:30.153Z,1.10
2023-01-31T07:23:57.476Z,1.00
2023-01-31T07:26:24.692Z,1.20
2023-01-31T07:28:52.556Z,1.30
2023-01-31T07:31:20.999Z,1.00
2023-01-31T07:33:48.496Z,1.42
2023-01-31T07:36:16.646Z,1.20
2023-01-31T07:38:43.903Z,1.17
2023-01-31T07:41:11.203Z,1.27
2023-01-31T07:43:39.029Z,1.50
2023-01-31T07:46:09.448Z,1.30
2023-01-31T07:48:37.460Z,1.40
2023-01-31T07:51:05.339Z,1.33
2023-01-31T07:53:34.363Z,1.13
2023-01-31T07:56:16.752Z,1.75
2023-01-31T07:58:44.968Z,1.30
2023-01-31T08:01:37.790Z,1.50
2023-01-31T08:04:19.893Z,1.30
2023-01-31T08:06:49.214Z,1.60
2023-01-31T08:09:16.451Z,1.88
2023-01-31T08:11:43.949Z,1.20
2023-01-31T08:14:11.151Z,1.30
2023-01-31T08:16:38.728Z,1.20
2023-01-31T08:19:06.027Z,1.55
2023-01-31T08:21:33.463Z,1.30
2023-01-31T08:24:01.164Z,1.05
2023-01-31T08:26:28.449Z,1.25
2023-01-31T08:28:56.517Z,1.42
2023-01-31T08:31:25.262Z,1.10
2023-01-31T08:33:53.413Z,1.27
2023-01-31T08:36:22.018Z,1.02
2023-01-31T08:38:49.610Z,1.05
2023-01-31T08:41:18.090Z,1.30
2023-01-31T08:43:55.874Z,1.02
2023-01-31T08:46:28.028Z,0.88
2023-01-31T08:48:55.720Z,1.30
2023-01-31T08:51:23.436Z,0.90
2023-01-31T08:53:50.915Z,1.10
2023-01-31T08:56:18.099Z,1.27
2023-01-31T08:58:45.328Z,1.00
2023-01-31T09:01:16.932Z,1.20
2023-01-31T09:03:45.585Z,1.20
2023-01-31T09:06:15.243Z,1.15
2023-01-31T09:08:42.452Z,1.25
2023-01-31T09:11:10.006Z,1.15
2023-01-31T09:13:38.117Z,1.43
2023-01-31T09:16:10.525Z,1.45
2023-01-31T09:18:38.881Z,1.10
2023-01-31T09:21:06.210Z,1.23
2023-01-31T09:23:33.668Z,1.38
2023-01-31T09:26:01.054Z,1.08
2023-01-31T09:28:28.786Z,1.15
2023-01-31T09:30:56.229Z,1.30
2023-01-31T09:33:23.689Z,0.80
2023-01-31T09:36:01.323Z,1.30
2023-01-31T09:38:28.760Z,1.13
2023-01-31T09:40:57.007Z,1.15
2023-01-31T09:43:27.190Z,1.23
2023-01-31T09:45:58.057Z,1.00
2023-01-31T09:48:27.165Z,1.08
2023-01-31T09:50:56.237Z,1.00
2023-01-31T09:53:24.458Z,1.40
2023-01-31T09:56:03.493Z,1.20
2023-01-31T09:58:33.422Z,1.05
2023-01-31T10:01:15.088Z,1.52
2023-01-31T10:04:02.486Z,1.23
2023-01-31T10:06:35.509Z,1.25
2023-01-31T10:09:05.624Z,1.40
2023-01-31T10:11:49.865Z,1.27
2023-01-31T10:14:37.223Z,1.35
2023-01-31T10:17:07.192Z,1.48
2023-01-31T10:19:43.752Z,1.27
2023-01-31T10:22:13.836Z,1.30
2023-01-31T10:24:54.228Z,1.23
2023-01-31T10:27:29.391Z,1.35
2023-01-31T10:29:58.429Z,1.52
2023-01-31T10:32:36.081Z,1.30
2023-01-31T10:35:15.872Z,1.77
2023-01-31T10:37:46.606Z,1.35
2023-01-31T10:40:16.110Z,1.45
2023-01-31T10:42:48.246Z,1.40
2023-01-31T10:45:20.736Z,1.67
2023-01-31T10:47:48.024Z,1.52
2023-01-31T10:50:18.534Z,1.70
2023-01-31T10:52:53.334Z,1.35
2023-01-31T10:55:23.196Z,1.38
2023-01-31T10:57:50.576Z,1.50
2023-01-31T11:00:20.716Z,1.65
2023-01-31T11:02:48.347Z,1.60
2023-01-31T11:05:18.619Z,1.52
2023-01-31T11:07:46.890Z,1.52
2023-01-31T11:10:25.019Z,1.63
2023-01-31T11:12:53.433Z,1.52
2023-01-31T11:15:23.251Z,1.52
2023-01-31T11:17:50.725Z,1.55
2023-01-31T11:20:23.333Z,1.58
2023-01-31T11:22:54.890Z,1.35
2023-01-31T11:25:23.582Z,2.00
2023-01-31T11:27:53.727Z,1.70
2023-01-31T11:30:21.649Z,1.83
2023-01-31T11:32:49.503Z,1.50
2023-01-31T11:35:16.682Z,1.90
2023-01-31T11:37:53.708Z,1.85
2023-01-31T11:40:22.983Z,1.70
2023-01-31T11:45:18.767Z,1.65
2023-01-31T11:47:47.103Z,1.50
2023-01-31T11:50:28.140Z,1.70
2023-01-31T11:52:59.406Z,1.70
2023-01-31T11:55:27.208Z,1.85
2023-01-31T11:57:56.553Z,1.60
2023-01-31T12:00:25.648Z,2.08
2023-01-31T12:03:01.134Z,2.50
2023-01-31T12:05:37.001Z,1.88
2023-01-31T12:08:04.713Z,1.58
2023-01-31T12:10:45.610Z,2.30
2023-01-31T12:13:18.894Z,1.92
2023-01-31T12:15:50.243Z,2.35
2023-01-31T12:18:29.892Z,1.73
2023-01-31T12:21:12.368Z,2.05
2023-01-31T12:23:39.528Z,1.67
2023-01-31T12:26:09.663Z,1.55
2023-01-31T12:28:40.157Z,1.75
2023-01-31T12:31:07.430Z,2.03
2023-01-31T12:33:52.812Z,1.70
2023-01-31T12:36:38.909Z,1.45
2023-01-31T12:39:12.396Z,2.42
2023-01-31T12:41:41.438Z,1.58
2023-01-31T12:44:16.345Z,2.30
2023-01-31T12:47:12.763Z,4.50
2023-01-31T12:49:58.670Z,2.55
2023-01-31T12:52:25.788Z,1.73
2023-01-31T12:55:11.357Z,1.90
2023-01-31T12:57:44.730Z,2.45
2023-01-31T13:00:17.847Z,2.20
2023-01-31T13:02:54.406Z,2.50
2023-01-31T13:05:28.096Z,4.10
2023-01-31T13:08:02.873Z,2.53
2023-01-31T13:10:40.459Z,2.47
2023-01-31T13:13:15.221Z,1.92
2023-01-31T13:15:48.812Z,1.83
2023-01-31T13:18:16.764Z,1.73
2023-01-31T13:20:45.781Z,1.95
2023-01-31T13:25:42.208Z,2.30
2023-01-31T13:28:09.394Z,2.50
2023-01-31T13:30:40.004Z,2.10
2023-01-31T13:33:25.767Z,2.00
2023-01-31T13:36:15.940Z,2.75
2023-01-31T13:38:44.733Z,2.78
2023-01-31T13:41:20.975Z,2.47
2023-01-31T13:43:48.433Z,2.47
2023-01-31T13:46:17.875Z,1.88
2023-01-31T13:49:05.311Z,2.85
2023-01-31T13:51:35.479Z,1.55
2023-01-31T13:54:14.187Z,1.92
2023-01-31T13:56:41.647Z,1.70
2023-01-31T13:59:10.146Z,1.75
2023-01-31T14:01:44.956Z,2.15
2023-01-31T14:04:13.620Z,1.98
2023-01-31T14:06:53.353Z,2.15
2023-01-31T14:09:30.710Z,1.65
2023-01-31T14:11:59.543Z,1.67
2023-01-31T14:14:42.009Z,1.98
2023-01-31T14:17:34.977Z,2.55
2023-01-31T14:20:06.034Z,1.33
2023-01-31T14:22:37.848Z,1.92
2023-01-31T14:25:11.228Z,2.05
2023-01-31T14:27:41.573Z,1.75
2023-01-31T14:30:09.415Z,2.03
2023-01-31T14:32:37.139Z,2.88
2023-01-31T14:35:19.053Z,1.45
2023-01-31T14:37:46.622Z,1.73
2023-01-31T14:40:32.337Z,2.10
2023-01-31T14:43:08.876Z,1.83
2023-01-31T14:45:39.147Z,2.10
2023-01-31T14:48:06.899Z,1.95
2023-01-31T14:50:52.638Z,1.83
2023-01-31T14:53:19.775Z,1.70
2023-01-31T14:55:50.080Z,2.25
2023-01-31T14:58:23.042Z,2.58
2023-01-31T15:00:51.993Z,1.75
2023-01-31T15:03:22.360Z,2.05
2023-01-31T15:05:55.695Z,2.05
2023-01-31T15:08:25.611Z,2.53
2023-01-31T15:10:58.203Z,1.95
2023-01-31T15:13:42.535Z,2.33
2023-01-31T15:16:28.699Z,2.80
2023-01-31T15:18:56.453Z,2.40
2023-01-31T15:21:25.908Z,2.13
2023-01-31T15:23:54.019Z,1.92
2023-01-31T15:26:22.380Z,2.50
2023-01-31T15:28:50.713Z,2.53
2023-01-31T15:31:28.308Z,1.55
2023-01-31T15:33:58.754Z,2.10
2023-01-31T15:36:44.744Z,2.50
2023-01-31T15:39:24.019Z,2.42
2023-01-31T15:41:51.380Z,2.60
2023-01-31T15:44:19.866Z,2.85
2023-01-31T15:46:48.238Z,1.73
2023-01-31T15:49:38.172Z,1.90
2023-01-31T15:52:11.156Z,2.08
2023-01-31T15:54:38.716Z,2.10
2023-01-31T15:57:11.134Z,2.00
2023-01-31T15:59:38.618Z,2.08
2023-01-31T16:02:16.784Z,1.98
2023-01-31T16:04:44.214Z,1.90
2023-01-31T16:07:18.455Z,2.22
2023-01-31T16:09:46.493Z,2.20
2023-01-31T16:12:14.875Z,1.60
2023-01-31T16:14:46.361Z,1.83
2023-01-31T16:17:13.879Z,2.10
2023-01-31T16:19:41.463Z,2.53
2023-01-31T16:22:26.894Z,2.40
2023-01-31T16:25:01.652Z,2.75
2023-01-31T16:27:31.187Z,2.33
2023-01-31T16:29:59.575Z,2.85
2023-01-31T16:32:27.011Z,7.75
2023-01-31T16:35:02.299Z,7.93
2023-01-31T16:37:31.637Z,2.67
2023-01-31T16:42:27.793Z,2.60
2023-01-31T16:44:55.051Z,2.42
2023-01-31T16:47:34.191Z,2.83
2023-01-31T16:50:22.624Z,3.20
2023-01-31T16:52:52.869Z,2.13
2023-01-31T16:55:21.852Z,3.07
2023-01-31T16:57:49.512Z,2.58
2023-01-31T17:00:27.089Z,2.95
2023-01-31T17:02:56.304Z,2.50
2023-01-31T17:05:29.268Z,3.42
2023-01-31T17:07:58.455Z,2.80
2023-01-31T17:10:27.456Z,2.10
2023-01-31T17:13:00.752Z,2.70
2023-01-31T17:15:28.114Z,2.10
2023-01-31T17:17:56.030Z,2.80
2023-01-31T17:20:23.581Z,2.65
2023-01-31T17:23:00.910Z,3.28
2023-01-31T17:25:32.969Z,3.67
2023-01-31T17:28:00.444Z,3.35
2023-01-31T17:30:30.467Z,2.60
2023-01-31T17:32:58.152Z,2.80
2023-01-31T17:35:31.398Z,3.20
2023-01-31T17:37:58.725Z,3.00
2023-01-31T17:40:26.216Z,3.63
2023-01-31T17:42:55.584Z,3.38
2023-01-31T17:45:23.357Z,3.33
2023-01-31T17:47:51.098Z,2.83
2023-01-31T17:50:22.934Z,4.40
2023-01-31T17:52:50.587Z,3.35
2023-01-31T17:55:20.012Z,3.42
2023-01-31T17:57:47.950Z,3.78
2023-01-31T18:00:16.305Z,3.80
2023-01-31T18:02:43.731Z,3.42
2023-01-31T18:05:18.618Z,3.55
2023-01-31T18:07:50.970Z,3.45
2023-01-31T18:10:19.727Z,4.05
2023-01-31T18:12:47.077Z,4.15
2023-01-31T18:15:14.541Z,4.00
2023-01-31T18:17:42.433Z,4.75
2023-01-31T18:20:10.176Z,3.95
2023-01-31T18:22:38.114Z,2.80
2023-01-31T18:25:05.842Z,4.75
2023-01-31T18:27:33.713Z,3.45
2023-01-31T18:30:01.391Z,3.45
2023-01-31T18:32:29.298Z,3.47
2023-01-31T18:34:56.443Z,4.05
2023-01-31T18:37:23.992Z,4.75
2023-01-31T18:39:52.479Z,4.85
2023-01-31T18:44:48.177Z,3.88
2023-01-31T18:47:16.984Z,3.70
2023-01-31T18:49:44.423Z,3.15
2023-01-31T18:52:12.285Z,3.63
2023-01-31T18:54:39.728Z,3.20
2023-01-31T18:57:06.919Z,3.75
2023-01-31T18:59:34.955Z,3.70
2023-01-31T19:02:02.525Z,3.00
2023-01-31T19:04:29.915Z,3.80
2023-01-31T19:06:57.523Z,3.88
2023-01-31T19:09:26.295Z,3.47
2023-01-31T19:11:54.043Z,4.05
2023-01-31T19:14:21.932Z,3.78
2023-01-31T19:16:49.589Z,3.55
2023-01-31T19:19:17.508Z,3.00
2023-01-31T19:21:45.807Z,3.53
2023-01-31T19:24:14.345Z,3.75
2023-01-31T19:26:42.298Z,3.20
2023-01-31T19:29:14.810Z,4.63
2023-01-31T19:31:43.184Z,4.80
2023-01-31T19:34:10.764Z,4.28
2023-01-31T19:36:39.781Z,4.03
2023-01-31T19:41:34.959Z,2.95
2023-01-31T19:44:02.568Z,3.10
2023-01-31T19:46:31.585Z,3.15
2023-01-31T19:49:00.023Z,2.97
2023-01-31T19:51:28.147Z,2.80
2023-01-31T19:53:59.062Z,2.70
2023-01-31T19:56:27.211Z,2.80
2023-01-31T19:58:55.028Z,2.40
2023-01-31T20:01:22.697Z,2.60
2023-01-31T20:03:50.305Z,2.70
2023-01-31T20:06:19.665Z,2.58
2023-01-31T20:08:50.602Z,2.50
2023-01-31T20:11:18.265Z,2.80
2023-01-31T20:13:45.978Z,2.35
2023-01-31T20:16:13.650Z,2.80
2023-01-31T20:18:41.786Z,2.88
2023-01-31T20:21:12.951Z,2.83
2023-01-31T20:23:40.359Z,2.60
2023-01-31T20:26:07.613Z,2.58
2023-01-31T20:28:35.100Z,2.53
2023-01-31T20:31:06.673Z,2.50
2023-01-31T20:33:33.939Z,2.10
2023-01-31T20:36:01.502Z,2.38
2023-01-31T20:38:28.943Z,2.00
2023-01-31T20:40:56.826Z,2.63
2023-01-31T20:43:25.009Z,2.55
2023-01-31T20:45:52.752Z,2.70
2023-01-31T20:48:20.386Z,2.08
2023-01-31T20:50:55.273Z,2.40
2023-01-31T20:53:23.158Z,1.70
2023-01-31T20:55:57.541Z,2.22
2023-01-31T20:58:26.076Z,2.47
2023-01-31T21:00:54.414Z,1.50
2023-01-31T21:03:22.166Z,1.63
2023-01-31T21:05:50.302Z,1.67
2023-01-31T21:08:18.456Z,2.22
2023-01-31T21:10:52.654Z,1.77
2023-01-31T21:13:24.354Z,1.98
2023-01-31T21:15:56.299Z,1.55
2023-01-31T21:18:25.740Z,1.67
2023-01-31T21:20:53.232Z,1.88
2023-01-31T21:23:20.456Z,1.63
2023-01-31T21:25:48.203Z,2.17
2023-01-31T21:28:15.967Z,1.80
2023-01-31T21:30:43.356Z,2.92
2023-01-31T21:33:10.653Z,1.70
2023-01-31T21:35:37.839Z,1.70
2023-01-31T21:38:05.046Z,2.58
2023-01-31T21:40:32.327Z,1.60
2023-01-31T21:42:59.847Z,1.85
2023-01-31T21:45:42.395Z,1.80
2023-01-31T21:48:29.164Z,2.08
2023-01-31T21:50:57.265Z,2.03
2023-01-31T21:53:24.817Z,2.13
2023-01-31T21:56:00.053Z,2.70
2023-01-31T21:58:27.251Z,1.95
2023-01-31T22:00:54.440Z,2.15
2023-01-31T22:03:21.503Z,1.65
2023-01-31T22:05:49.024Z,2.22
2023-01-31T22:08:16.497Z,2.00
2023-01-31T22:10:43.863Z,1.98
2023-01-31T22:13:11.085Z,2.10
2023-01-31T22:15:38.254Z,1.73
2023-01-31T22:18:05.732Z,2.28
2023-01-31T22:20:33.318Z,2.00
2023-01-31T22:23:00.624Z,1.80
2023-01-31T22:25:27.675Z,1.65
2023-01-31T22:27:56.718Z,1.92
2023-01-31T22:30:23.788Z,1.75
2023-01-31T22:32:50.943Z,1.42
2023-01-31T22:35:18.427Z,1.65
2023-01-31T22:37:45.742Z,1.63
2023-01-31T22:40:13.044Z,1.63
2023-01-31T22:42:40.421Z,1.50
2023-01-31T22:45:07.676Z,1.50
2023-01-31T22:47:35.020Z,1.50
2023-01-31T22:50:02.205Z,1.80
2023-01-31T22:52:29.699Z,1.40
2023-01-31T22:54:57.058Z,1.80
2023-01-31T22:57:24.472Z,1.50
2023-01-31T22:59:51.761Z,1.23
2023-01-31T23:02:19.076Z,1.30
2023-01-31T23:04:46.797Z,1.33
2023-01-31T23:07:15.005Z,1.52
2023-01-31T23:09:42.494Z,1.60
2023-01-31T23:12:09.609Z,1.88
2023-01-31T23:14:36.743Z,1.90
2023-01-31T23:17:22.760Z,1.75
2023-01-31T23:19:50.133Z,1.73
2023-01-31T23:22:17.420Z,1.38
2023-01-31T23:24:44.844Z,1.77
2023-01-31T23:27:12.249Z,1.50
2023-01-31T23:29:39.813Z,1.58
2023-01-31T23:32:07.271Z,1.50
2023-01-31T23:34:34.661Z,1.33
2023-01-31T23:37:02.205Z,1.90
2023-01-31T23:39:29.651Z,1.35
2023-01-31T23:41:57.110Z,1.73
2023-01-31T23:44:24.448Z,1.60
2023-01-31T23:46:51.555Z,1.88
2023-01-31T23:49:18.983Z,1.90
2023-01-31T23:51:46.251Z,1.35
2023-01-31T23:54:13.815Z,1.90
2023-01-31T23:56:41.265Z,1.52
2023-01-31T23:59:08.652Z,1.60
